sensor_id;sensor_type;location;lat;lon;timestamp;temperature;humidity
79750;SHT31;69233;51.968;5.658;2023-07-20T00:01:08;21.3;62.8
79750;SHT31;69233;51.968;5.658;2023-07-20T00:03:37;21.3;63.1
79750;SHT31;69233;51.968;5.658;2023-07-20T00:06:07;21.2;63.1
79750;SHT31;69233;51.968;5.658;2023-07-20T00:08:37;21.2;63.6
79750;SHT31;69233;51.968;5.658;2023-07-20T00:11:06;21.2;63.6
79750;SHT31;69233;51.968;5.658;2023-07-20T00:13:36;21.1;63.4
79750;SHT31;69233;51.968;5.658;2023-07-20T00:16:07;21.1;63.9
79750;SHT31;69233;51.968;5.658;2023-07-20T00:18:36;21.1;63.9
79750;SHT31;69233;51.968;5.658;2023-07-20T00:21:06;21.1;64.3
79750;SHT31;69233;51.968;5.658;2023-07-20T00:23:36;21.2;64.0
79750;SHT31;69233;51.968;5.658;2023-07-20T00:26:05;21.2;63.5
79750;SHT31;69233;51.968;5.658;2023-07-20T00:28:34;21.2;63.6
79750;SHT31;69233;51.968;5.658;2023-07-20T00:31:04;21.1;63.5
79750;SHT31;69233;51.968;5.658;2023-07-20T00:33:35;21.1;63.7
79750;SHT31;69233;51.968;5.658;2023-07-20T00:36:05;21.1;64.0
79750;SHT31;69233;51.968;5.658;2023-07-20T00:38:34;21.0;64.0
79750;SHT31;69233;51.968;5.658;2023-07-20T00:41:04;21.0;63.8
79750;SHT31;69233;51.968;5.658;2023-07-20T00:43:33;20.9;64.2
79750;SHT31;69233;51.968;5.658;2023-07-20T00:46:03;20.9;64.2
79750;SHT31;69233;51.968;5.658;2023-07-20T00:48:33;20.9;64.8
79750;SHT31;69233;51.968;5.658;2023-07-20T00:51:04;20.8;64.3
79750;SHT31;69233;51.968;5.658;2023-07-20T00:53:33;20.8;64.4
79750;SHT31;69233;51.968;5.658;2023-07-20T00:56:03;20.8;64.2
79750;SHT31;69233;51.968;5.658;2023-07-20T00:58:35;20.7;64.2
79750;SHT31;69233;51.968;5.658;2023-07-20T01:01:04;20.7;64.2
79750;SHT31;69233;51.968;5.658;2023-07-20T01:03:34;20.7;64.5
79750;SHT31;69233;51.968;5.658;2023-07-20T01:06:12;20.6;64.5
79750;SHT31;69233;51.968;5.658;2023-07-20T01:08:52;20.6;64.7
79750;SHT31;69233;51.968;5.658;2023-07-20T01:11:31;20.6;64.4
79750;SHT31;69233;51.968;5.658;2023-07-20T01:14:03;20.5;64.5
79750;SHT31;69233;51.968;5.658;2023-07-20T01:16:32;20.5;64.5
79750;SHT31;69233;51.968;5.658;2023-07-20T01:19:02;20.5;64.7
79750;SHT31;69233;51.968;5.658;2023-07-20T01:21:41;20.4;65.3
79750;SHT31;69233;51.968;5.658;2023-07-20T01:24:49;20.4;64.5
79750;SHT31;69233;51.968;5.658;2023-07-20T01:31:32;20.3;64.5
79750;SHT31;69233;51.968;5.658;2023-07-20T01:34:04;20.2;64.7
79750;SHT31;69233;51.968;5.658;2023-07-20T01:36:36;20.2;64.8
79750;SHT31;69233;51.968;5.658;2023-07-20T01:39:08;20.1;64.9
79750;SHT31;69233;51.968;5.658;2023-07-20T01:41:40;20.1;65.0
79750;SHT31;69233;51.968;5.658;2023-07-20T01:44:10;20.0;64.9
79750;SHT31;69233;51.968;5.658;2023-07-20T01:46:40;20.0;64.9
79750;SHT31;69233;51.968;5.658;2023-07-20T01:49:09;20.0;64.8
79750;SHT31;69233;51.968;5.658;2023-07-20T01:51:39;19.9;64.5
79750;SHT31;69233;51.968;5.658;2023-07-20T01:54:08;19.9;64.6
79750;SHT31;69233;51.968;5.658;2023-07-20T01:56:38;19.8;64.8
79750;SHT31;69233;51.968;5.658;2023-07-20T01:59:07;19.8;64.8
79750;SHT31;69233;51.968;5.658;2023-07-20T02:01:36;19.7;64.5
79750;SHT31;69233;51.968;5.658;2023-07-20T02:04:06;19.7;64.6
79750;SHT31;69233;51.968;5.658;2023-07-20T02:06:37;19.6;64.8
79750;SHT31;69233;51.968;5.658;2023-07-20T02:09:06;19.6;64.6
79750;SHT31;69233;51.968;5.658;2023-07-20T02:11:36;19.5;64.6
79750;SHT31;69233;51.968;5.658;2023-07-20T02:14:05;19.5;65.1
79750;SHT31;69233;51.968;5.658;2023-07-20T02:16:35;19.4;64.8
79750;SHT31;69233;51.968;5.658;2023-07-20T02:19:04;19.4;65.0
79750;SHT31;69233;51.968;5.658;2023-07-20T02:21:34;19.3;65.1
79750;SHT31;69233;51.968;5.658;2023-07-20T02:24:04;19.3;64.9
79750;SHT31;69233;51.968;5.658;2023-07-20T02:26:34;19.2;65.0
79750;SHT31;69233;51.968;5.658;2023-07-20T02:29:03;19.2;65.1
79750;SHT31;69233;51.968;5.658;2023-07-20T02:31:35;19.2;65.2
79750;SHT31;69233;51.968;5.658;2023-07-20T02:34:06;19.1;65.0
79750;SHT31;69233;51.968;5.658;2023-07-20T02:36:36;19.1;65.1
79750;SHT31;69233;51.968;5.658;2023-07-20T02:39:05;19.0;65.0
79750;SHT31;69233;51.968;5.658;2023-07-20T02:41:35;19.0;64.8
79750;SHT31;69233;51.968;5.658;2023-07-20T02:44:06;19.0;64.9
79750;SHT31;69233;51.968;5.658;2023-07-20T02:46:36;18.9;65.1
79750;SHT31;69233;51.968;5.658;2023-07-20T02:49:05;18.9;65.1
79750;SHT31;69233;51.968;5.658;2023-07-20T02:51:35;18.8;65.1
79750;SHT31;69233;51.968;5.658;2023-07-20T02:54:05;18.8;65.1
79750;SHT31;69233;51.968;5.658;2023-07-20T02:56:34;18.8;65.6
79750;SHT31;69233;51.968;5.658;2023-07-20T02:59:04;18.7;66.1
79750;SHT31;69233;51.968;5.658;2023-07-20T03:01:33;18.7;66.2
79750;SHT31;69233;51.968;5.658;2023-07-20T03:04:03;18.7;66.1
79750;SHT31;69233;51.968;5.658;2023-07-20T03:06:32;18.7;65.9
79750;SHT31;69233;51.968;5.658;2023-07-20T03:09:04;18.6;65.8
79750;SHT31;69233;51.968;5.658;2023-07-20T03:11:34;18.6;65.8
79750;SHT31;69233;51.968;5.658;2023-07-20T03:14:04;18.6;65.7
79750;SHT31;69233;51.968;5.658;2023-07-20T03:16:33;18.6;65.9
79750;SHT31;69233;51.968;5.658;2023-07-20T03:19:03;18.6;65.7
79750;SHT31;69233;51.968;5.658;2023-07-20T03:21:32;18.6;65.8
79750;SHT31;69233;51.968;5.658;2023-07-20T03:24:02;18.6;65.5
79750;SHT31;69233;51.968;5.658;2023-07-20T03:26:32;18.6;65.4
79750;SHT31;69233;51.968;5.658;2023-07-20T03:29:01;18.6;65.2
79750;SHT31;69233;51.968;5.658;2023-07-20T03:31:31;18.5;65.4
79750;SHT31;69233;51.968;5.658;2023-07-20T03:34:00;18.5;65.4
79750;SHT31;69233;51.968;5.658;2023-07-20T03:36:31;18.5;65.2
79750;SHT31;69233;51.968;5.658;2023-07-20T03:39:01;18.5;65.3
79750;SHT31;69233;51.968;5.658;2023-07-20T03:41:31;18.4;65.5
79750;SHT31;69233;51.968;5.658;2023-07-20T03:44:00;18.4;65.5
79750;SHT31;69233;51.968;5.658;2023-07-20T03:46:30;18.4;65.7
79750;SHT31;69233;51.968;5.658;2023-07-20T03:49:01;18.3;65.7
79750;SHT31;69233;51.968;5.658;2023-07-20T03:51:30;18.3;65.7
79750;SHT31;69233;51.968;5.658;2023-07-20T03:54:00;18.3;65.8
79750;SHT31;69233;51.968;5.658;2023-07-20T03:56:30;18.2;65.9
79750;SHT31;69233;51.968;5.658;2023-07-20T03:59:02;18.2;65.9
79750;SHT31;69233;51.968;5.658;2023-07-20T04:01:32;18.2;66.1
79750;SHT31;69233;51.968;5.658;2023-07-20T04:04:05;18.2;66.0
79750;SHT31;69233;51.968;5.658;2023-07-20T04:06:35;18.1;66.0
79750;SHT31;69233;51.968;5.658;2023-07-20T04:09:05;18.1;66.2
79750;SHT31;69233;51.968;5.658;2023-07-20T04:11:34;18.1;66.4
79750;SHT31;69233;51.968;5.658;2023-07-20T04:14:04;18.1;66.2
79750;SHT31;69233;51.968;5.658;2023-07-20T04:16:34;18.0;66.5
79750;SHT31;69233;51.968;5.658;2023-07-20T04:19:04;18.0;66.6
79750;SHT31;69233;51.968;5.658;2023-07-20T04:21:41;18.0;66.6
79750;SHT31;69233;51.968;5.658;2023-07-20T04:24:10;18.0;66.9
79750;SHT31;69233;51.968;5.658;2023-07-20T04:26:40;18.0;67.2
79750;SHT31;69233;51.968;5.658;2023-07-20T04:29:09;18.0;67.5
79750;SHT31;69233;51.968;5.658;2023-07-20T04:31:40;18.0;68.2
79750;SHT31;69233;51.968;5.658;2023-07-20T04:34:10;18.0;68.6
79750;SHT31;69233;51.968;5.658;2023-07-20T04:36:39;18.0;69.2
79750;SHT31;69233;51.968;5.658;2023-07-20T04:39:10;18.0;69.2
79750;SHT31;69233;51.968;5.658;2023-07-20T04:41:39;18.0;69.7
79750;SHT31;69233;51.968;5.658;2023-07-20T04:44:09;18.1;69.8
79750;SHT31;69233;51.968;5.658;2023-07-20T04:46:38;18.1;70.1
79750;SHT31;69233;51.968;5.658;2023-07-20T04:49:07;18.2;70.3
79750;SHT31;69233;51.968;5.658;2023-07-20T04:51:37;18.3;70.6
79750;SHT31;69233;51.968;5.658;2023-07-20T04:54:06;18.5;70.1
79750;SHT31;69233;51.968;5.658;2023-07-20T04:56:36;18.6;69.7
79750;SHT31;69233;51.968;5.658;2023-07-20T04:59:05;18.6;69.7
79750;SHT31;69233;51.968;5.658;2023-07-20T05:01:34;18.7;69.4
79750;SHT31;69233;51.968;5.658;2023-07-20T05:04:04;18.7;69.6
79750;SHT31;69233;51.968;5.658;2023-07-20T05:06:35;18.8;69.6
79750;SHT31;69233;51.968;5.658;2023-07-20T05:09:06;18.8;69.9
79750;SHT31;69233;51.968;5.658;2023-07-20T05:11:36;18.9;69.2
79750;SHT31;69233;51.968;5.658;2023-07-20T05:14:07;18.9;69.5
79750;SHT31;69233;51.968;5.658;2023-07-20T05:16:36;18.9;69.5
79750;SHT31;69233;51.968;5.658;2023-07-20T05:19:08;19.0;69.3
79750;SHT31;69233;51.968;5.658;2023-07-20T05:21:37;19.0;69.0
79750;SHT31;69233;51.968;5.658;2023-07-20T05:24:07;19.1;69.9
79750;SHT31;69233;51.968;5.658;2023-07-20T05:26:37;19.1;69.2
79750;SHT31;69233;51.968;5.658;2023-07-20T05:29:07;19.2;68.6
79750;SHT31;69233;51.968;5.658;2023-07-20T05:31:36;19.2;68.6
79750;SHT31;69233;51.968;5.658;2023-07-20T05:34:06;19.2;67.9
79750;SHT31;69233;51.968;5.658;2023-07-20T05:36:35;19.2;67.7
79750;SHT31;69233;51.968;5.658;2023-07-20T05:39:06;19.2;67.6
79750;SHT31;69233;51.968;5.658;2023-07-20T05:41:37;19.2;67.5
79750;SHT31;69233;51.968;5.658;2023-07-20T05:44:06;19.2;67.4
79750;SHT31;69233;51.968;5.658;2023-07-20T05:46:36;19.2;67.6
79750;SHT31;69233;51.968;5.658;2023-07-20T05:49:05;19.2;67.7
79750;SHT31;69233;51.968;5.658;2023-07-20T05:51:34;19.2;68.1
79750;SHT31;69233;51.968;5.658;2023-07-20T05:54:04;19.2;68.7
79750;SHT31;69233;51.968;5.658;2023-07-20T05:56:34;19.2;68.6
79750;SHT31;69233;51.968;5.658;2023-07-20T05:59:03;19.2;68.4
79750;SHT31;69233;51.968;5.658;2023-07-20T06:01:32;19.2;68.1
79750;SHT31;69233;51.968;5.658;2023-07-20T06:04:02;19.2;68.1
79750;SHT31;69233;51.968;5.658;2023-07-20T06:06:32;19.2;68.5
79750;SHT31;69233;51.968;5.658;2023-07-20T06:09:02;19.2;68.7
79750;SHT31;69233;51.968;5.658;2023-07-20T06:11:35;19.2;69.1
79750;SHT31;69233;51.968;5.658;2023-07-20T06:14:04;19.2;69.5
79750;SHT31;69233;51.968;5.658;2023-07-20T06:16:34;19.2;69.7
79750;SHT31;69233;51.968;5.658;2023-07-20T06:19:03;19.3;70.1
79750;SHT31;69233;51.968;5.658;2023-07-20T06:21:32;19.3;69.7
79750;SHT31;69233;51.968;5.658;2023-07-20T06:24:02;19.4;69.9
79750;SHT31;69233;51.968;5.658;2023-07-20T06:26:31;19.4;70.4
79750;SHT31;69233;51.968;5.658;2023-07-20T06:29:06;19.4;70.4
79750;SHT31;69233;51.968;5.658;2023-07-20T06:31:36;19.5;69.1
79750;SHT31;69233;51.968;5.658;2023-07-20T06:34:06;19.6;69.8
79750;SHT31;69233;51.968;5.658;2023-07-20T06:36:35;19.6;69.5
79750;SHT31;69233;51.968;5.658;2023-07-20T06:39:05;19.7;69.8
79750;SHT31;69233;51.968;5.658;2023-07-20T06:41:35;19.8;69.7
79750;SHT31;69233;51.968;5.658;2023-07-20T06:44:04;19.8;69.4
79750;SHT31;69233;51.968;5.658;2023-07-20T06:46:35;19.9;68.5
79750;SHT31;69233;51.968;5.658;2023-07-20T06:49:06;20.0;69.4
79750;SHT31;69233;51.968;5.658;2023-07-20T06:51:37;20.1;66.3
79750;SHT31;69233;51.968;5.658;2023-07-20T06:54:07;20.2;67.6
79750;SHT31;69233;51.968;5.658;2023-07-20T06:56:36;20.2;66.1
79750;SHT31;69233;51.968;5.658;2023-07-20T06:59:07;20.3;62.3
79750;SHT31;69233;51.968;5.658;2023-07-20T07:01:36;20.4;63.0
79750;SHT31;69233;51.968;5.658;2023-07-20T07:04:06;20.4;60.9
79750;SHT31;69233;51.968;5.658;2023-07-20T07:06:37;20.5;64.2
79750;SHT31;69233;51.968;5.658;2023-07-20T07:09:08;20.5;64.7
79750;SHT31;69233;51.968;5.658;2023-07-20T07:11:42;20.6;62.8
79750;SHT31;69233;51.968;5.658;2023-07-20T07:14:12;20.6;62.2
79750;SHT31;69233;51.968;5.658;2023-07-20T07:16:47;20.7;60.1
79750;SHT31;69233;51.968;5.658;2023-07-20T07:19:19;20.8;63.0
79750;SHT31;69233;51.968;5.658;2023-07-20T07:21:48;20.8;62.3
79750;SHT31;69233;51.968;5.658;2023-07-20T07:24:18;20.9;62.7
79750;SHT31;69233;51.968;5.658;2023-07-20T07:26:47;20.9;63.0
79750;SHT31;69233;51.968;5.658;2023-07-20T07:29:17;21.0;64.3
79750;SHT31;69233;51.968;5.658;2023-07-20T07:31:48;21.1;63.1
79750;SHT31;69233;51.968;5.658;2023-07-20T07:34:18;21.2;61.3
79750;SHT31;69233;51.968;5.658;2023-07-20T07:36:47;21.2;62.0
79750;SHT31;69233;51.968;5.658;2023-07-20T07:39:17;21.3;60.9
79750;SHT31;69233;51.968;5.658;2023-07-20T07:41:46;21.3;59.7
79750;SHT31;69233;51.968;5.658;2023-07-20T07:44:17;21.3;61.8
79750;SHT31;69233;51.968;5.658;2023-07-20T07:46:48;21.4;59.7
79750;SHT31;69233;51.968;5.658;2023-07-20T07:49:19;21.4;58.9
79750;SHT31;69233;51.968;5.658;2023-07-20T07:51:48;21.5;59.5
79750;SHT31;69233;51.968;5.658;2023-07-20T07:54:18;21.5;60.2
79750;SHT31;69233;51.968;5.658;2023-07-20T07:56:47;21.6;61.3
79750;SHT31;69233;51.968;5.658;2023-07-20T07:59:18;21.7;57.4
79750;SHT31;69233;51.968;5.658;2023-07-20T08:01:50;21.8;58.7
79750;SHT31;69233;51.968;5.658;2023-07-20T08:04:19;21.9;61.7
79750;SHT31;69233;51.968;5.658;2023-07-20T08:06:49;22.1;60.5
79750;SHT31;69233;51.968;5.658;2023-07-20T08:09:18;22.3;59.5
79750;SHT31;69233;51.968;5.658;2023-07-20T08:11:48;22.5;57.7
79750;SHT31;69233;51.968;5.658;2023-07-20T08:14:17;22.7;58.9
79750;SHT31;69233;51.968;5.658;2023-07-20T08:16:47;22.9;56.8
79750;SHT31;69233;51.968;5.658;2023-07-20T08:19:17;23.0;57.2
79750;SHT31;69233;51.968;5.658;2023-07-20T08:21:46;23.2;56.1
79750;SHT31;69233;51.968;5.658;2023-07-20T08:24:16;23.4;57.3
79750;SHT31;69233;51.968;5.658;2023-07-20T08:26:45;23.6;56.4
79750;SHT31;69233;51.968;5.658;2023-07-20T08:29:15;23.8;53.2
79750;SHT31;69233;51.968;5.658;2023-07-20T08:31:44;23.9;52.7
79750;SHT31;69233;51.968;5.658;2023-07-20T08:34:14;24.1;50.9
79750;SHT31;69233;51.968;5.658;2023-07-20T08:36:44;24.1;50.5
79750;SHT31;69233;51.968;5.658;2023-07-20T08:39:13;24.2;48.3
79750;SHT31;69233;51.968;5.658;2023-07-20T08:41:44;24.2;50.2
79750;SHT31;69233;51.968;5.658;2023-07-20T08:44:13;24.2;49.3
79750;SHT31;69233;51.968;5.658;2023-07-20T08:46:44;24.2;50.3
79750;SHT31;69233;51.968;5.658;2023-07-20T08:49:15;24.2;49.8
79750;SHT31;69233;51.968;5.658;2023-07-20T08:51:46;24.2;50.0
79750;SHT31;69233;51.968;5.658;2023-07-20T08:54:17;24.2;49.4
79750;SHT31;69233;51.968;5.658;2023-07-20T08:56:47;24.2;47.4
79750;SHT31;69233;51.968;5.658;2023-07-20T08:59:17;24.2;49.1
79750;SHT31;69233;51.968;5.658;2023-07-20T09:01:47;24.2;46.7
79750;SHT31;69233;51.968;5.658;2023-07-20T09:04:17;24.2;46.3
79750;SHT31;69233;51.968;5.658;2023-07-20T09:06:49;24.1;45.1
79750;SHT31;69233;51.968;5.658;2023-07-20T09:09:19;24.1;48.6
79750;SHT31;69233;51.968;5.658;2023-07-20T09:11:50;24.2;48.8
79750;SHT31;69233;51.968;5.658;2023-07-20T09:14:21;24.2;49.8
79750;SHT31;69233;51.968;5.658;2023-07-20T09:16:54;24.4;48.7
79750;SHT31;69233;51.968;5.658;2023-07-20T09:19:27;24.6;47.4
79750;SHT31;69233;51.968;5.658;2023-07-20T09:21:58;24.6;48.4
79750;SHT31;69233;51.968;5.658;2023-07-20T09:24:31;24.6;46.4
79750;SHT31;69233;51.968;5.658;2023-07-20T09:27:01;24.7;49.0
79750;SHT31;69233;51.968;5.658;2023-07-20T09:29:35;24.7;49.1
79750;SHT31;69233;51.968;5.658;2023-07-20T09:32:10;24.7;49.1
79750;SHT31;69233;51.968;5.658;2023-07-20T09:34:39;24.8;50.0
79750;SHT31;69233;51.968;5.658;2023-07-20T09:37:09;24.9;51.0
79750;SHT31;69233;51.968;5.658;2023-07-20T09:39:44;25.0;45.0
79750;SHT31;69233;51.968;5.658;2023-07-20T09:42:14;25.1;46.1
79750;SHT31;69233;51.968;5.658;2023-07-20T09:44:45;25.2;44.3
79750;SHT31;69233;51.968;5.658;2023-07-20T09:47:25;25.3;44.7
79750;SHT31;69233;51.968;5.658;2023-07-20T09:49:59;25.5;45.9
79750;SHT31;69233;51.968;5.658;2023-07-20T09:52:30;25.6;43.7
79750;SHT31;69233;51.968;5.658;2023-07-20T09:55:01;25.8;42.4
79750;SHT31;69233;51.968;5.658;2023-07-20T09:57:33;25.9;43.6
79750;SHT31;69233;51.968;5.658;2023-07-20T10:00:22;26.0;44.8
79750;SHT31;69233;51.968;5.658;2023-07-20T10:02:52;26.1;44.2
79750;SHT31;69233;51.968;5.658;2023-07-20T10:05:24;26.2;45.7
79750;SHT31;69233;51.968;5.658;2023-07-20T10:08:01;26.3;43.9
79750;SHT31;69233;51.968;5.658;2023-07-20T10:10:33;26.4;42.9
79750;SHT31;69233;51.968;5.658;2023-07-20T10:13:20;26.5;43.2
79750;SHT31;69233;51.968;5.658;2023-07-20T10:15:54;26.6;42.3
79750;SHT31;69233;51.968;5.658;2023-07-20T10:18:30;26.7;42.4
79750;SHT31;69233;51.968;5.658;2023-07-20T10:21:00;26.9;41.5
79750;SHT31;69233;51.968;5.658;2023-07-20T10:23:34;27.0;39.8
79750;SHT31;69233;51.968;5.658;2023-07-20T10:26:04;27.0;42.3
79750;SHT31;69233;51.968;5.658;2023-07-20T10:28:36;27.1;41.5
79750;SHT31;69233;51.968;5.658;2023-07-20T10:31:07;27.2;41.3
79750;SHT31;69233;51.968;5.658;2023-07-20T10:33:38;27.2;40.3
79750;SHT31;69233;51.968;5.658;2023-07-20T10:36:10;27.3;39.3
79750;SHT31;69233;51.968;5.658;2023-07-20T10:38:42;27.3;39.1
79750;SHT31;69233;51.968;5.658;2023-07-20T10:41:18;27.4;41.0
79750;SHT31;69233;51.968;5.658;2023-07-20T10:43:49;27.5;39.4
79750;SHT31;69233;51.968;5.658;2023-07-20T10:46:34;27.6;38.7
79750;SHT31;69233;51.968;5.658;2023-07-20T10:49:05;27.6;39.0
79750;SHT31;69233;51.968;5.658;2023-07-20T10:51:41;27.6;39.2
79750;SHT31;69233;51.968;5.658;2023-07-20T10:57:28;27.8;42.5
79750;SHT31;69233;51.968;5.658;2023-07-20T11:00:10;27.9;40.6
79750;SHT31;69233;51.968;5.658;2023-07-20T11:02:45;28.1;41.7
79750;SHT31;69233;51.968;5.658;2023-07-20T11:05:38;28.2;37.4
79750;SHT31;69233;51.968;5.658;2023-07-20T11:08:12;28.3;38.7
79750;SHT31;69233;51.968;5.658;2023-07-20T11:10:41;28.4;38.8
79750;SHT31;69233;51.968;5.658;2023-07-20T11:13:22;28.5;38.9
79750;SHT31;69233;51.968;5.658;2023-07-20T11:16:05;28.6;36.7
79750;SHT31;69233;51.968;5.658;2023-07-20T11:18:35;28.7;38.3
79750;SHT31;69233;51.968;5.658;2023-07-20T11:21:09;28.9;41.1
79750;SHT31;69233;51.968;5.658;2023-07-20T11:23:39;29.1;39.4
79750;SHT31;69233;51.968;5.658;2023-07-20T11:26:09;29.4;37.0
79750;SHT31;69233;51.968;5.658;2023-07-20T11:28:39;29.6;37.7
79750;SHT31;69233;51.968;5.658;2023-07-20T11:31:09;29.9;37.1
79750;SHT31;69233;51.968;5.658;2023-07-20T11:33:38;30.1;36.5
79750;SHT31;69233;51.968;5.658;2023-07-20T11:36:09;30.2;36.2
79750;SHT31;69233;51.968;5.658;2023-07-20T11:38:39;30.4;35.5
79750;SHT31;69233;51.968;5.658;2023-07-20T11:41:10;30.6;36.4
79750;SHT31;69233;51.968;5.658;2023-07-20T11:43:40;30.8;33.2
79750;SHT31;69233;51.968;5.658;2023-07-20T11:46:11;31.0;35.5
79750;SHT31;69233;51.968;5.658;2023-07-20T11:48:40;31.1;33.8
79750;SHT31;69233;51.968;5.658;2023-07-20T11:51:15;31.3;32.9
79750;SHT31;69233;51.968;5.658;2023-07-20T11:53:47;31.5;32.6
79750;SHT31;69233;51.968;5.658;2023-07-20T11:56:16;31.7;31.9
79750;SHT31;69233;51.968;5.658;2023-07-20T11:58:46;31.8;31.9
79750;SHT31;69233;51.968;5.658;2023-07-20T12:01:17;31.9;33.6
79750;SHT31;69233;51.968;5.658;2023-07-20T12:03:48;32.0;31.5
79750;SHT31;69233;51.968;5.658;2023-07-20T12:06:18;32.2;32.9
79750;SHT31;69233;51.968;5.658;2023-07-20T12:08:47;32.4;31.0
79750;SHT31;69233;51.968;5.658;2023-07-20T12:11:31;32.6;32.8
79750;SHT31;69233;51.968;5.658;2023-07-20T12:14:02;32.8;31.0
79750;SHT31;69233;51.968;5.658;2023-07-20T12:16:32;32.9;31.4
79750;SHT31;69233;51.968;5.658;2023-07-20T12:19:05;33.0;29.7
79750;SHT31;69233;51.968;5.658;2023-07-20T12:21:36;33.1;30.6
79750;SHT31;69233;51.968;5.658;2023-07-20T12:24:08;33.1;27.8
79750;SHT31;69233;51.968;5.658;2023-07-20T12:26:38;33.1;27.5
79750;SHT31;69233;51.968;5.658;2023-07-20T12:29:07;33.1;28.0
79750;SHT31;69233;51.968;5.658;2023-07-20T12:31:38;33.1;28.2
79750;SHT31;69233;51.968;5.658;2023-07-20T12:34:07;33.1;29.0
79750;SHT31;69233;51.968;5.658;2023-07-20T12:36:38;33.1;28.5
79750;SHT31;69233;51.968;5.658;2023-07-20T12:39:08;33.1;29.7
79750;SHT31;69233;51.968;5.658;2023-07-20T12:41:37;33.2;29.6
79750;SHT31;69233;51.968;5.658;2023-07-20T12:44:09;33.3;29.6
79750;SHT31;69233;51.968;5.658;2023-07-20T12:46:39;33.4;29.9
79750;SHT31;69233;51.968;5.658;2023-07-20T12:49:09;33.5;29.4
79750;SHT31;69233;51.968;5.658;2023-07-20T12:51:38;33.5;27.8
79750;SHT31;69233;51.968;5.658;2023-07-20T12:54:08;33.5;27.8
79750;SHT31;69233;51.968;5.658;2023-07-20T12:56:37;33.5;29.8
79750;SHT31;69233;51.968;5.658;2023-07-20T12:59:07;33.6;28.5
79750;SHT31;69233;51.968;5.658;2023-07-20T13:01:36;33.6;28.8
79750;SHT31;69233;51.968;5.658;2023-07-20T13:04:08;33.7;28.3
79750;SHT31;69233;51.968;5.658;2023-07-20T13:06:40;33.7;27.7
79750;SHT31;69233;51.968;5.658;2023-07-20T13:09:10;33.8;28.6
79750;SHT31;69233;51.968;5.658;2023-07-20T13:11:40;33.8;31.2
79750;SHT31;69233;51.968;5.658;2023-07-20T13:14:10;33.8;31.2
79750;SHT31;69233;51.968;5.658;2023-07-20T13:16:40;33.8;31.5
79750;SHT31;69233;51.968;5.658;2023-07-20T13:19:10;33.7;28.8
79750;SHT31;69233;51.968;5.658;2023-07-20T13:21:39;33.7;28.5
79750;SHT31;69233;51.968;5.658;2023-07-20T13:24:09;33.6;29.2
79750;SHT31;69233;51.968;5.658;2023-07-20T13:26:38;33.5;29.5
79750;SHT31;69233;51.968;5.658;2023-07-20T13:29:08;33.4;29.3
79750;SHT31;69233;51.968;5.658;2023-07-20T13:31:37;33.1;29.6
79750;SHT31;69233;51.968;5.658;2023-07-20T13:34:07;32.8;29.1
79750;SHT31;69233;51.968;5.658;2023-07-20T13:36:36;32.5;29.3
79750;SHT31;69233;51.968;5.658;2023-07-20T13:39:06;32.1;27.9
79750;SHT31;69233;51.968;5.658;2023-07-20T13:41:36;31.7;29.4
79750;SHT31;69233;51.968;5.658;2023-07-20T13:44:05;31.4;30.1
79750;SHT31;69233;51.968;5.658;2023-07-20T13:46:35;31.0;31.0
79750;SHT31;69233;51.968;5.658;2023-07-20T13:49:04;30.8;31.9
79750;SHT31;69233;51.968;5.658;2023-07-20T13:51:34;30.6;31.5
79750;SHT31;69233;51.968;5.658;2023-07-20T13:54:03;30.5;33.5
79750;SHT31;69233;51.968;5.658;2023-07-20T13:56:33;30.4;35.5
79750;SHT31;69233;51.968;5.658;2023-07-20T13:59:03;30.3;35.3
79750;SHT31;69233;51.968;5.658;2023-07-20T14:01:32;30.3;34.4
79750;SHT31;69233;51.968;5.658;2023-07-20T14:04:03;30.3;34.9
79750;SHT31;69233;51.968;5.658;2023-07-20T14:06:33;30.2;32.9
79750;SHT31;69233;51.968;5.658;2023-07-20T14:09:03;30.2;33.0
79750;SHT31;69233;51.968;5.658;2023-07-20T14:11:32;30.3;31.7
79750;SHT31;69233;51.968;5.658;2023-07-20T14:14:02;30.2;35.0
79750;SHT31;69233;51.968;5.658;2023-07-20T14:16:33;30.2;33.5
79750;SHT31;69233;51.968;5.658;2023-07-20T14:19:03;30.1;32.7
79750;SHT31;69233;51.968;5.658;2023-07-20T14:21:33;30.0;33.7
79750;SHT31;69233;51.968;5.658;2023-07-20T14:24:04;30.0;34.2
79750;SHT31;69233;51.968;5.658;2023-07-20T14:26:33;29.9;33.6
79750;SHT31;69233;51.968;5.658;2023-07-20T14:29:03;29.8;34.1
79750;SHT31;69233;51.968;5.658;2023-07-20T14:31:32;29.7;34.3
79750;SHT31;69233;51.968;5.658;2023-07-20T14:34:01;29.6;34.0
79750;SHT31;69233;51.968;5.658;2023-07-20T14:36:31;29.5;35.0
79750;SHT31;69233;51.968;5.658;2023-07-20T14:39:00;29.5;36.6
79750;SHT31;69233;51.968;5.658;2023-07-20T14:41:30;29.5;34.7
79750;SHT31;69233;51.968;5.658;2023-07-20T14:44:00;29.5;33.9
79750;SHT31;69233;51.968;5.658;2023-07-20T14:46:29;29.5;34.9
79750;SHT31;69233;51.968;5.658;2023-07-20T14:48:59;29.6;34.4
79750;SHT31;69233;51.968;5.658;2023-07-20T14:51:30;29.6;36.5
79750;SHT31;69233;51.968;5.658;2023-07-20T14:54:01;29.6;33.3
79750;SHT31;69233;51.968;5.658;2023-07-20T14:56:30;29.6;34.8
79750;SHT31;69233;51.968;5.658;2023-07-20T14:59:02;29.6;36.5
79750;SHT31;69233;51.968;5.658;2023-07-20T15:01:33;29.7;36.8
79750;SHT31;69233;51.968;5.658;2023-07-20T15:04:03;29.7;34.9
79750;SHT31;69233;51.968;5.658;2023-07-20T15:06:32;29.7;35.5
79750;SHT31;69233;51.968;5.658;2023-07-20T15:09:02;29.7;34.8
79750;SHT31;69233;51.968;5.658;2023-07-20T15:11:33;29.7;31.8
79750;SHT31;69233;51.968;5.658;2023-07-20T15:14:03;29.7;34.0
79750;SHT31;69233;51.968;5.658;2023-07-20T15:16:32;29.7;33.1
79750;SHT31;69233;51.968;5.658;2023-07-20T15:19:03;29.7;34.0
79750;SHT31;69233;51.968;5.658;2023-07-20T15:21:32;29.6;33.9
79750;SHT31;69233;51.968;5.658;2023-07-20T15:24:02;29.6;33.6
79750;SHT31;69233;51.968;5.658;2023-07-20T15:26:31;29.5;32.4
79750;SHT31;69233;51.968;5.658;2023-07-20T15:29:02;29.5;32.3
79750;SHT31;69233;51.968;5.658;2023-07-20T15:31:32;29.4;33.0
79750;SHT31;69233;51.968;5.658;2023-07-20T15:34:03;29.3;33.1
79750;SHT31;69233;51.968;5.658;2023-07-20T15:36:33;29.2;33.1
79750;SHT31;69233;51.968;5.658;2023-07-20T15:39:03;29.1;33.8
79750;SHT31;69233;51.968;5.658;2023-07-20T15:41:33;29.0;32.9
79750;SHT31;69233;51.968;5.658;2023-07-20T15:44:05;28.9;33.2
79750;SHT31;69233;51.968;5.658;2023-07-20T15:46:55;28.8;34.5
79750;SHT31;69233;51.968;5.658;2023-07-20T15:49:25;28.7;34.5
79750;SHT31;69233;51.968;5.658;2023-07-20T15:51:55;28.6;34.1
79750;SHT31;69233;51.968;5.658;2023-07-20T15:54:24;28.6;32.4
79750;SHT31;69233;51.968;5.658;2023-07-20T15:56:54;28.5;32.6
79750;SHT31;69233;51.968;5.658;2023-07-20T15:59:23;28.4;33.3
79750;SHT31;69233;51.968;5.658;2023-07-20T16:01:53;28.3;34.7
79750;SHT31;69233;51.968;5.658;2023-07-20T16:04:23;28.3;33.4
79750;SHT31;69233;51.968;5.658;2023-07-20T16:06:52;28.2;32.6
79750;SHT31;69233;51.968;5.658;2023-07-20T16:09:22;28.1;33.5
79750;SHT31;69233;51.968;5.658;2023-07-20T16:11:51;28.0;35.2
79750;SHT31;69233;51.968;5.658;2023-07-20T16:14:20;27.9;34.4
79750;SHT31;69233;51.968;5.658;2023-07-20T16:16:52;27.9;35.4
79750;SHT31;69233;51.968;5.658;2023-07-20T16:19:21;27.8;36.5
79750;SHT31;69233;51.968;5.658;2023-07-20T16:21:51;27.7;35.9
79750;SHT31;69233;51.968;5.658;2023-07-20T16:24:20;27.6;36.3
79750;SHT31;69233;51.968;5.658;2023-07-20T16:26:51;27.5;35.8
79750;SHT31;69233;51.968;5.658;2023-07-20T16:29:20;27.5;36.2
79750;SHT31;69233;51.968;5.658;2023-07-20T16:31:51;27.4;36.3